Time;durP1;ratioP1;P1;durP2;ratioP2;P2;SDS_P1;SDS_P2;PMS_P1;PMS_P2;Temp;Humidity;BMP_temperature;BMP_pressure;BME280_temperature;BME280_humidity;BME280_pressure;Samples;Min_cycle;Max_cycle;Signal;HPM_P1;HPM_P2
2023/09/21 00:01:03;;;;;;;1.67;0.60;;;19.10;99.90;;;;;;4939541;29;20035;-90
2023/09/21 00:03:29;;;;;;;2.03;0.50;;;19.20;99.90;;;;;;4955268;29;20019;-88
2023/09/21 00:05:58;;;;;;;2.85;0.60;;;19.20;99.90;;;;;;4956791;29;20138;-88
2023/09/21 00:08:24;;;;;;;3.50;0.65;;;19.10;99.90;;;;;;4940416;29;20491;-90
2023/09/21 00:10:54;;;;;;;4.40;0.68;;;19.10;99.90;;;;;;4955997;28;20031;-89
2023/09/21 00:13:22;;;;;;;3.85;0.73;;;19.10;99.90;;;;;;4956239;29;20074;-88
2023/09/21 00:15:48;;;;;;;2.67;0.65;;;19.10;99.90;;;;;;4936230;29;20031;-88
2023/09/21 00:18:13;;;;;;;2.35;0.80;;;19.10;99.90;;;;;;4954071;29;20026;-88
2023/09/21 00:20:43;;;;;;;1.75;0.55;;;19.10;99.90;;;;;;4953976;29;20031;-89
2023/09/21 00:23:09;;;;;;;2.22;0.90;;;19.10;99.90;;;;;;4935914;29;20015;-89
2023/09/21 00:25:36;;;;;;;2.75;0.57;;;19.10;99.90;;;;;;4955062;28;20031;-89
2023/09/21 00:28:07;;;;;;;2.67;0.65;;;19.10;99.90;;;;;;4956018;29;20123;-88
2023/09/21 00:30:37;;;;;;;1.75;0.60;;;19.20;99.90;;;;;;4938288;29;20039;-89
2023/09/21 00:33:07;;;;;;;2.13;0.60;;;19.10;99.90;;;;;;4939781;29;20056;-89
2023/09/21 00:35:32;;;;;;;2.50;0.57;;;19.20;99.90;;;;;;4955970;28;20030;-88
2023/09/21 00:37:58;;;;;;;3.70;0.60;;;19.20;99.90;;;;;;4954830;28;20035;-88
2023/09/21 00:40:23;;;;;;;3.45;0.50;;;19.30;99.90;;;;;;4953875;29;20027;-88
2023/09/21 00:42:51;;;;;;;2.33;0.60;;;19.30;99.90;;;;;;4955037;29;20031;-88
2023/09/21 00:45:18;;;;;;;3.88;0.75;;;19.30;99.90;;;;;;4932035;29;20034;-87
2023/09/21 00:47:51;;;;;;;3.53;0.50;;;19.30;99.90;;;;;;4950637;28;20483;-88
2023/09/21 00:50:24;;;;;;;2.97;0.60;;;19.30;99.90;;;;;;4953780;28;20069;-88
2023/09/21 00:52:52;;;;;;;3.35;0.40;;;19.30;99.90;;;;;;4954136;29;20130;-88
2023/09/21 00:55:30;;;;;;;1.85;0.45;;;19.20;99.90;;;;;;4954988;29;20035;-88
2023/09/21 00:57:59;;;;;;;1.77;0.57;;;19.30;99.90;;;;;;4936254;29;20046;-88
2023/09/21 01:00:25;;;;;;;1.90;0.50;;;19.20;99.90;;;;;;4953946;28;20506;-88
2023/09/21 01:02:53;;;;;;;3.28;0.50;;;19.20;99.90;;;;;;4937684;29;20122;-88
2023/09/21 01:05:21;;;;;;;1.88;0.52;;;19.20;99.90;;;;;;4939013;29;20027;-89
2023/09/21 01:07:48;;;;;;;2.22;0.57;;;19.20;99.90;;;;;;4952885;28;20031;-88
2023/09/21 01:10:15;;;;;;;2.28;0.50;;;19.10;99.90;;;;;;4951200;28;20034;-88
2023/09/21 01:12:44;;;;;;;2.58;0.70;;;19.20;99.90;;;;;;4936611;29;20023;-88
2023/09/21 01:15:10;;;;;;;2.17;0.70;;;19.10;99.90;;;;;;4955556;29;20085;-89
2023/09/21 01:17:39;;;;;;;2.03;0.47;;;19.10;99.90;;;;;;4952025;28;20126;-88
2023/09/21 01:20:19;;;;;;;1.83;0.40;;;19.10;99.90;;;;;;4954489;28;20039;-88
2023/09/21 01:23:08;;;;;;;1.80;0.65;;;19.10;99.90;;;;;;4938375;29;20027;-88
2023/09/21 01:25:35;;;;;;;2.08;0.77;;;19.10;99.90;;;;;;4945020;29;20027;-88
2023/09/21 01:28:02;;;;;;;3.22;0.50;;;19.00;99.90;;;;;;4930319;29;20038;-88
2023/09/21 01:30:28;;;;;;;2.15;0.80;;;19.00;99.90;;;;;;4953783;28;20023;-88
2023/09/21 01:32:53;;;;;;;2.33;0.68;;;19.00;99.90;;;;;;4953539;29;20062;-87
2023/09/21 01:35:19;;;;;;;1.40;0.60;;;19.00;99.90;;;;;;4954405;29;20030;-88
2023/09/21 01:37:45;;;;;;;2.63;0.60;;;18.90;99.90;;;;;;4949414;28;20046;-88
2023/09/21 01:40:17;;;;;;;2.92;0.65;;;18.90;99.90;;;;;;4938599;29;20027;-88
2023/09/21 01:42:44;;;;;;;1.70;0.55;;;18.80;99.90;;;;;;4937869;29;20126;-88
2023/09/21 01:45:11;;;;;;;4.15;0.70;;;18.80;99.90;;;;;;4955583;28;20546;-87
2023/09/21 01:47:37;;;;;;;2.17;0.60;;;18.70;99.90;;;;;;4952866;29;20031;-87
2023/09/21 01:50:06;;;;;;;1.85;0.57;;;18.80;99.90;;;;;;4953614;28;20032;-88
2023/09/21 01:52:32;;;;;;;3.55;0.85;;;18.70;99.90;;;;;;4953823;29;20025;-88
2023/09/21 01:54:59;;;;;;;1.83;0.50;;;18.70;99.90;;;;;;4953217;28;20390;-87
2023/09/21 01:57:25;;;;;;;1.55;0.50;;;18.70;99.90;;;;;;4937660;29;20036;-87
2023/09/21 01:59:50;;;;;;;1.63;0.60;;;18.80;99.90;;;;;;4950839;28;20365;-87
2023/09/21 02:02:20;;;;;;;5.25;0.73;;;18.70;99.90;;;;;;4952368;28;20035;-87
2023/09/21 02:04:47;;;;;;;1.85;0.75;;;18.70;99.90;;;;;;4940171;29;20122;-87
2023/09/21 02:07:14;;;;;;;1.83;0.75;;;18.60;99.90;;;;;;4951017;29;20032;-87
2023/09/21 02:09:40;;;;;;;1.88;0.80;;;18.60;99.90;;;;;;4951737;29;20491;-87
2023/09/21 02:12:05;;;;;;;2.30;0.70;;;18.60;99.90;;;;;;4953654;29;20039;-87
2023/09/21 02:14:31;;;;;;;2.80;0.63;;;18.60;99.90;;;;;;4949490;29;20027;-87
2023/09/21 02:16:56;;;;;;;2.58;0.50;;;18.50;99.90;;;;;;4954051;29;20035;-88
2023/09/21 02:19:22;;;;;;;2.70;0.60;;;18.50;99.90;;;;;;4952794;28;20484;-87
2023/09/21 02:21:48;;;;;;;2.72;0.57;;;18.50;99.90;;;;;;4938565;29;20067;-87
2023/09/21 02:24:13;;;;;;;1.77;0.50;;;18.50;99.90;;;;;;4953750;29;20109;-87
2023/09/21 02:26:40;;;;;;;1.75;0.60;;;18.40;99.90;;;;;;4938066;29;20549;-87
2023/09/21 02:29:06;;;;;;;3.65;1.00;;;18.40;99.90;;;;;;4932694;29;20028;-87
2023/09/21 02:31:33;;;;;;;2.08;0.68;;;18.30;99.90;;;;;;4953469;29;20027;-87
2023/09/21 02:33:59;;;;;;;2.53;0.47;;;18.30;99.90;;;;;;4953069;29;20030;-86
2023/09/21 02:36:25;;;;;;;2.30;0.60;;;18.30;99.90;;;;;;4953849;29;20134;-87
2023/09/21 02:38:51;;;;;;;4.00;0.63;;;18.30;99.90;;;;;;4951190;29;20024;-87
2023/09/21 02:41:16;;;;;;;1.83;0.63;;;18.20;99.90;;;;;;4946752;29;20031;-88
2023/09/21 02:43:41;;;;;;;4.15;0.60;;;18.20;99.90;;;;;;4945605;29;20032;-87
2023/09/21 02:46:07;;;;;;;2.70;0.70;;;18.20;99.90;;;;;;4951257;29;20027;-88
2023/09/21 02:48:34;;;;;;;4.60;0.70;;;18.20;99.90;;;;;;4954858;28;20093;-86
2023/09/21 02:51:03;;;;;;;1.52;0.50;;;18.20;99.90;;;;;;4941990;29;20097;-87
2023/09/21 02:53:29;;;;;;;2.08;0.47;;;18.10;99.90;;;;;;4957223;29;20384;-87
2023/09/21 02:55:54;;;;;;;6.82;0.77;;;18.10;99.90;;;;;;4937549;29;20042;-86
2023/09/21 02:58:20;;;;;;;2.22;0.70;;;18.10;99.90;;;;;;4949499;29;20038;-87
2023/09/21 03:00:46;;;;;;;3.15;0.93;;;18.10;99.90;;;;;;4927859;29;20078;-87
2023/09/21 03:03:16;;;;;;;2.90;0.82;;;18.00;99.90;;;;;;4957616;28;20360;-87
2023/09/21 03:05:46;;;;;;;1.48;0.50;;;18.00;99.90;;;;;;4941155;29;20035;-87
2023/09/21 03:08:14;;;;;;;4.18;1.00;;;18.00;99.90;;;;;;4940470;29;20226;-87
2023/09/21 03:10:41;;;;;;;2.20;0.50;;;17.90;99.90;;;;;;4940935;29;20046;-87
2023/09/21 03:13:10;;;;;;;2.40;0.57;;;17.90;99.90;;;;;;4941218;29;20135;-87
2023/09/21 03:15:36;;;;;;;2.33;0.60;;;17.90;99.90;;;;;;4941275;29;20038;-87
2023/09/21 03:18:07;;;;;;;1.92;0.63;;;17.80;99.90;;;;;;4956806;29;20546;-86
2023/09/21 03:20:36;;;;;;;2.05;0.47;;;17.80;99.90;;;;;;4955400;29;20054;-87
2023/09/21 03:23:12;;;;;;;2.60;0.60;;;17.80;99.90;;;;;;4952605;29;20460;-87
2023/09/21 03:25:41;;;;;;;1.75;0.65;;;17.80;99.90;;;;;;4957559;29;20110;-88
2023/09/21 03:28:15;;;;;;;2.45;0.60;;;17.70;99.90;;;;;;4956589;29;20035;-87
2023/09/21 03:30:51;;;;;;;2.33;0.70;;;17.80;99.90;;;;;;4935545;29;20472;-86
2023/09/21 03:33:20;;;;;;;1.70;0.70;;;17.80;99.90;;;;;;4939915;29;20051;-86
2023/09/21 03:35:46;;;;;;;4.00;0.60;;;17.70;99.90;;;;;;4952803;29;20093;-87
2023/09/21 03:38:18;;;;;;;2.10;0.68;;;17.70;99.90;;;;;;4950231;29;20039;-87
2023/09/21 03:40:44;;;;;;;1.38;0.50;;;17.70;99.90;;;;;;4941034;29;20038;-88
2023/09/21 03:43:12;;;;;;;2.17;0.70;;;17.70;99.90;;;;;;4944175;29;20126;-87
2023/09/21 03:45:38;;;;;;;2.17;0.60;;;17.60;99.90;;;;;;4956435;29;20033;-87
2023/09/21 03:48:06;;;;;;;2.67;1.05;;;17.60;99.90;;;;;;4956112;29;20582;-87
2023/09/21 03:50:32;;;;;;;2.78;0.80;;;17.60;99.90;;;;;;4955994;28;20130;-87
2023/09/21 03:53:05;;;;;;;2.03;0.60;;;17.60;99.90;;;;;;4952951;28;20692;-87
2023/09/21 03:55:34;;;;;;;8.93;0.88;;;17.60;99.90;;;;;;4948910;29;20063;-88
2023/09/21 03:58:00;;;;;;;4.85;0.68;;;17.60;99.90;;;;;;4950405;29;20093;-87
2023/09/21 04:00:36;;;;;;;2.60;0.70;;;17.70;99.90;;;;;;4953728;28;20215;-87
2023/09/21 04:03:10;;;;;;;2.42;0.73;;;17.70;99.90;;;;;;4953303;28;20035;-87
2023/09/21 04:05:40;;;;;;;3.28;0.70;;;17.70;99.90;;;;;;4956438;29;20110;-87
2023/09/21 04:08:07;;;;;;;4.75;1.00;;;17.70;99.90;;;;;;4955671;29;20035;-87
2023/09/21 04:10:33;;;;;;;2.40;0.80;;;17.70;99.90;;;;;;4951354;29;20069;-88
2023/09/21 04:12:59;;;;;;;2.35;0.60;;;17.70;99.90;;;;;;4953849;28;20027;-86
2023/09/21 04:15:26;;;;;;;2.20;0.70;;;17.70;99.90;;;;;;4939988;29;20027;-87
2023/09/21 04:17:52;;;;;;;5.55;1.20;;;17.70;99.90;;;;;;4957054;28;20035;-87
2023/09/21 04:20:21;;;;;;;3.40;0.85;;;17.70;99.90;;;;;;4948976;29;20027;-87
2023/09/21 04:22:51;;;;;;;2.85;0.70;;;17.70;99.90;;;;;;4955330;29;20031;-88
2023/09/21 04:25:18;;;;;;;1.70;0.70;;;17.70;99.90;;;;;;4952873;28;20019;-87
2023/09/21 04:27:45;;;;;;;3.72;0.77;;;17.80;99.90;;;;;;4953408;29;20110;-89
2023/09/21 04:30:16;;;;;;;1.83;0.70;;;17.80;99.90;;;;;;4955830;29;20110;-89
2023/09/21 04:32:46;;;;;;;2.13;1.03;;;17.80;99.90;;;;;;4955870;28;20055;-88
2023/09/21 04:35:17;;;;;;;2.38;0.95;;;17.80;99.90;;;;;;4948156;29;20031;-87
2023/09/21 04:37:47;;;;;;;3.42;1.05;;;17.80;99.90;;;;;;4949061;29;20440;-88
2023/09/21 04:40:14;;;;;;;2.20;0.80;;;17.90;99.90;;;;;;4954738;29;20059;-88
2023/09/21 04:42:41;;;;;;;1.85;0.60;;;17.90;99.90;;;;;;4939770;29;20451;-87
2023/09/21 04:45:11;;;;;;;2.38;0.70;;;17.90;99.90;;;;;;4954917;28;20031;-88
2023/09/21 04:47:38;;;;;;;2.45;0.90;;;17.90;99.90;;;;;;4960208;28;20031;-88
2023/09/21 04:50:05;;;;;;;2.65;1.05;;;17.90;99.90;;;;;;4949436;29;20053;-88
2023/09/21 04:52:34;;;;;;;5.35;0.90;;;17.90;99.90;;;;;;4932890;29;20146;-89
2023/09/21 04:54:59;;;;;;;2.80;0.70;;;17.80;99.90;;;;;;4934117;29;20035;-87
2023/09/21 04:57:27;;;;;;;2.67;0.70;;;17.80;99.90;;;;;;4952523;28;20046;-88
2023/09/21 04:59:54;;;;;;;1.50;0.70;;;17.80;99.90;;;;;;4941606;29;20023;-88
2023/09/21 05:02:19;;;;;;;2.72;0.90;;;17.80;99.90;;;;;;4951667;28;20571;-88
2023/09/21 05:04:44;;;;;;;4.30;0.90;;;17.80;99.90;;;;;;4954347;28;20066;-88
2023/09/21 05:07:10;;;;;;;2.90;0.82;;;17.80;99.90;;;;;;4941042;29;20023;-88
2023/09/21 05:09:36;;;;;;;2.85;0.70;;;17.80;99.90;;;;;;4951700;29;20121;-88
2023/09/21 05:12:03;;;;;;;3.75;0.80;;;17.80;99.90;;;;;;4953329;28;20611;-88
2023/09/21 05:14:29;;;;;;;3.72;1.00;;;17.80;99.90;;;;;;4958010;28;20030;-88
2023/09/21 05:16:57;;;;;;;1.92;0.60;;;17.70;99.90;;;;;;4946187;28;20040;-88
2023/09/21 05:19:22;;;;;;;2.75;0.70;;;17.80;99.90;;;;;;4955531;29;20078;-88
2023/09/21 05:21:48;;;;;;;3.30;0.80;;;17.70;99.90;;;;;;4949642;28;20031;-89
2023/09/21 05:24:14;;;;;;;2.20;0.68;;;17.70;99.90;;;;;;4954145;29;20027;-88
2023/09/21 05:26:40;;;;;;;2.65;0.80;;;17.70;99.90;;;;;;4955073;29;20106;-88
2023/09/21 05:29:06;;;;;;;3.38;0.70;;;17.80;99.90;;;;;;4955039;28;20027;-87
2023/09/21 05:31:31;;;;;;;2.30;0.60;;;17.80;99.90;;;;;;4949800;28;20019;-88
2023/09/21 05:33:57;;;;;;;3.60;0.77;;;17.70;99.90;;;;;;4935816;29;20035;-88
2023/09/21 05:36:22;;;;;;;3.58;0.75;;;17.70;99.90;;;;;;4954978;29;20061;-88
2023/09/21 05:38:48;;;;;;;1.75;0.88;;;17.80;99.90;;;;;;4954010;29;20086;-88
2023/09/21 05:41:13;;;;;;;2.75;0.75;;;17.80;99.90;;;;;;4958210;28;20026;-88
2023/09/21 05:43:40;;;;;;;4.47;0.93;;;17.80;99.90;;;;;;4957091;28;20421;-88
2023/09/21 05:46:05;;;;;;;2.88;0.73;;;17.80;99.90;;;;;;4955971;29;20034;-88
2023/09/21 05:48:32;;;;;;;3.55;0.88;;;17.90;99.90;;;;;;4937214;29;20027;-88
2023/09/21 05:50:59;;;;;;;2.78;0.80;;;17.90;99.90;;;;;;4949334;28;20497;-87
2023/09/21 05:53:25;;;;;;;2.70;0.70;;;17.90;99.90;;;;;;4937288;29;20031;-87
2023/09/21 05:55:51;;;;;;;3.80;1.00;;;17.90;99.90;;;;;;4954684;29;20114;-88
2023/09/21 05:58:17;;;;;;;4.38;0.73;;;17.90;99.90;;;;;;4955389;29;20115;-88
2023/09/21 06:00:42;;;;;;;2.40;0.90;;;17.90;99.90;;;;;;4954236;28;20019;-88
2023/09/21 06:03:08;;;;;;;3.47;0.70;;;17.90;99.90;;;;;;4953702;28;20031;-87
2023/09/21 06:05:33;;;;;;;3.92;1.05;;;17.90;99.90;;;;;;4952974;28;20035;-88
2023/09/21 06:07:59;;;;;;;3.30;0.75;;;17.90;99.90;;;;;;4952406;29;20023;-88
2023/09/21 06:10:25;;;;;;;2.97;1.50;;;17.90;99.90;;;;;;4945670;29;20053;-88
2023/09/21 06:12:51;;;;;;;3.03;0.88;;;17.90;99.90;;;;;;4952907;29;20058;-88
2023/09/21 06:15:17;;;;;;;2.42;0.90;;;17.90;99.90;;;;;;4953475;29;20034;-88
2023/09/21 06:17:43;;;;;;;1.73;0.90;;;17.80;99.90;;;;;;4930261;28;20041;-88
2023/09/21 06:20:09;;;;;;;1.95;0.80;;;17.80;99.90;;;;;;4944993;29;20114;-88
2023/09/21 06:22:37;;;;;;;3.13;0.88;;;17.70;99.90;;;;;;4950732;28;20036;-87
2023/09/21 06:25:04;;;;;;;5.80;1.05;;;17.70;99.90;;;;;;4953919;29;20028;-88
2023/09/21 06:27:30;;;;;;;5.65;1.05;;;17.70;99.90;;;;;;4952844;29;20059;-88
2023/09/21 06:29:56;;;;;;;2.30;0.90;;;17.60;99.90;;;;;;4949647;29;20119;-86
2023/09/21 06:32:23;;;;;;;2.20;0.90;;;17.60;99.90;;;;;;4937278;29;20134;-87
2023/09/21 06:34:51;;;;;;;4.05;1.15;;;17.60;99.90;;;;;;4936919;29;20046;-87
2023/09/21 06:37:18;;;;;;;2.55;0.90;;;17.60;99.90;;;;;;4948538;29;20070;-87
2023/09/21 06:39:44;;;;;;;6.75;1.40;;;17.50;99.90;;;;;;4925704;29;20050;-86
2023/09/21 06:42:09;;;;;;;2.60;1.13;;;17.50;99.90;;;;;;4950139;29;20102;-86
2023/09/21 06:44:36;;;;;;;4.15;1.20;;;17.40;99.90;;;;;;4932313;29;20019;-85
2023/09/21 06:47:03;;;;;;;3.83;1.20;;;17.40;99.90;;;;;;4932820;29;20435;-85
2023/09/21 06:49:29;;;;;;;5.75;1.33;;;17.40;99.90;;;;;;4935130;29;20024;-85
2023/09/21 06:51:56;;;;;;;3.13;0.90;;;17.40;99.90;;;;;;4947054;28;20042;-86
2023/09/21 06:54:23;;;;;;;2.92;1.17;;;17.30;99.90;;;;;;4952939;29;20020;-87
2023/09/21 06:56:49;;;;;;;7.07;1.20;;;17.40;99.90;;;;;;4936737;29;20035;-87
2023/09/21 06:59:15;;;;;;;3.80;1.23;;;17.40;99.90;;;;;;4929082;29;20055;-87
2023/09/21 07:01:40;;;;;;;4.93;1.33;;;17.40;99.90;;;;;;4949153;29;20027;-87
2023/09/21 07:04:07;;;;;;;3.30;1.15;;;17.50;99.90;;;;;;4934025;29;20480;-87
2023/09/21 07:06:32;;;;;;;2.58;1.08;;;17.50;99.90;;;;;;4953128;29;20027;-89
2023/09/21 07:08:59;;;;;;;3.50;1.27;;;17.50;99.90;;;;;;4931454;29;20369;-89
2023/09/21 07:11:24;;;;;;;3.03;0.93;;;17.50;99.90;;;;;;4953524;29;20034;-89
2023/09/21 07:13:51;;;;;;;3.45;1.20;;;17.50;99.90;;;;;;4950253;29;20023;-89
2023/09/21 07:16:19;;;;;;;4.70;1.27;;;17.50;99.90;;;;;;4950339;29;20042;-89
2023/09/21 07:18:47;;;;;;;4.43;1.42;;;17.60;99.90;;;;;;4940826;29;20030;-89
2023/09/21 07:21:14;;;;;;;5.45;1.98;;;17.60;99.90;;;;;;4953428;29;20507;-88
2023/09/21 07:23:42;;;;;;;2.90;1.33;;;17.60;99.90;;;;;;4947488;28;20035;-88
2023/09/21 07:26:08;;;;;;;2.92;1.15;;;17.50;99.90;;;;;;4964017;28;20050;-87
2023/09/21 07:28:34;;;;;;;4.15;1.45;;;17.50;99.90;;;;;;4953732;28;20480;-86
2023/09/21 07:31:01;;;;;;;3.67;1.30;;;17.60;99.90;;;;;;4937921;29;20043;-85
2023/09/21 07:33:30;;;;;;;2.92;1.25;;;17.50;99.90;;;;;;4941495;28;20098;-86
2023/09/21 07:35:56;;;;;;;3.53;1.38;;;17.50;99.90;;;;;;4956992;28;20039;-86
2023/09/21 07:38:23;;;;;;;4.47;1.45;;;17.50;99.90;;;;;;4941100;29;20035;-87
2023/09/21 07:40:52;;;;;;;5.05;1.38;;;17.50;99.90;;;;;;4940341;29;20019;-88
2023/09/21 07:43:17;;;;;;;2.45;1.30;;;17.50;99.90;;;;;;4951127;28;20035;-88
2023/09/21 07:45:46;;;;;;;3.67;1.33;;;17.50;99.90;;;;;;4956318;29;20046;-88
2023/09/21 07:48:13;;;;;;;3.00;1.55;;;17.50;99.90;;;;;;4938215;29;20420;-89
2023/09/21 07:50:38;;;;;;;7.78;2.05;;;17.50;99.90;;;;;;4947934;28;20027;-87
2023/09/21 07:53:04;;;;;;;4.65;2.05;;;17.50;99.90;;;;;;4950357;28;20027;-89
2023/09/21 07:55:30;;;;;;;3.60;1.85;;;17.50;99.90;;;;;;4949580;29;20023;-89
2023/09/21 07:57:56;;;;;;;4.68;2.13;;;17.50;99.90;;;;;;4964120;28;20054;-89
2023/09/21 08:00:22;;;;;;;4.50;1.77;;;17.60;99.90;;;;;;4946121;28;20028;-88
2023/09/21 08:02:47;;;;;;;3.78;1.38;;;17.50;99.90;;;;;;4953083;28;20059;-88
2023/09/21 08:05:13;;;;;;;3.97;2.17;;;17.50;99.90;;;;;;4936066;29;20516;-89
2023/09/21 08:07:39;;;;;;;7.38;1.88;;;17.50;99.90;;;;;;4932295;29;20023;-89
2023/09/21 08:10:06;;;;;;;4.28;2.30;;;17.40;99.90;;;;;;4947739;28;20031;-88
2023/09/21 08:12:32;;;;;;;4.07;1.73;;;17.40;99.90;;;;;;4947744;28;20064;-89
2023/09/21 08:14:59;;;;;;;5.25;1.80;;;17.40;99.90;;;;;;4953109;28;20034;-88
2023/09/21 08:17:24;;;;;;;5.03;2.15;;;17.40;99.90;;;;;;4948666;28;20039;-88
2023/09/21 08:19:50;;;;;;;4.60;1.98;;;17.40;99.90;;;;;;4948207;28;20085;-88
2023/09/21 08:22:16;;;;;;;5.75;1.95;;;17.40;99.90;;;;;;4957561;28;20170;-88
2023/09/21 08:24:41;;;;;;;5.85;2.40;;;17.40;99.90;;;;;;4954180;28;20027;-87
2023/09/21 08:27:10;;;;;;;3.88;2.53;;;17.40;99.90;;;;;;4948452;28;20027;-88
2023/09/21 08:29:35;;;;;;;4.63;2.60;;;17.50;99.90;;;;;;4956062;28;20109;-88
2023/09/21 08:32:02;;;;;;;5.78;3.08;;;17.50;99.90;;;;;;4950275;28;20087;-88
2023/09/21 08:34:27;;;;;;;3.83;2.40;;;17.50;99.90;;;;;;4954519;29;20380;-89
2023/09/21 08:36:53;;;;;;;5.22;2.85;;;17.50;99.90;;;;;;4933385;28;20054;-88
2023/09/21 08:39:18;;;;;;;5.38;2.90;;;17.50;99.90;;;;;;4937683;29;20031;-88
2023/09/21 08:41:49;;;;;;;6.25;2.72;;;17.50;99.90;;;;;;4934333;29;20399;-88
2023/09/21 08:44:16;;;;;;;5.25;2.72;;;17.50;99.90;;;;;;4937185;29;20027;-88
2023/09/21 08:46:44;;;;;;;6.72;2.75;;;17.50;99.90;;;;;;4940856;28;20352;-88
2023/09/21 08:49:10;;;;;;;5.55;2.75;;;17.40;99.90;;;;;;4943261;28;20070;-89
2023/09/21 08:51:40;;;;;;;4.28;2.42;;;17.40;99.90;;;;;;4939536;29;20059;-88
2023/09/21 08:54:11;;;;;;;6.43;2.63;;;17.40;99.90;;;;;;4927803;29;20038;-88
2023/09/21 08:56:38;;;;;;;3.38;1.83;;;17.40;99.90;;;;;;4943008;28;20063;-88
2023/09/21 08:59:06;;;;;;;4.95;2.60;;;17.30;99.90;;;;;;4951823;28;20042;-88
2023/09/21 09:01:34;;;;;;;5.75;3.00;;;17.30;99.90;;;;;;4949416;28;20038;-88
2023/09/21 09:04:03;;;;;;;4.68;2.63;;;17.30;99.90;;;;;;4954634;28;20039;-88
2023/09/21 09:06:29;;;;;;;4.93;2.88;;;17.30;99.90;;;;;;4958415;28;20055;-87
2023/09/21 09:08:55;;;;;;;3.90;1.63;;;17.30;99.90;;;;;;4956047;28;20027;-87
2023/09/21 09:11:38;;;;;;;4.78;1.70;;;17.20;99.90;;;;;;4955498;28;20027;-87
2023/09/21 09:14:10;;;;;;;8.48;2.72;;;17.10;99.90;;;;;;4939551;29;20035;-88
2023/09/21 09:16:36;;;;;;;11.23;3.78;;;17.00;99.90;;;;;;4939783;29;20031;-88
2023/09/21 09:19:05;;;;;;;9.25;3.55;;;16.80;99.90;;;;;;4956879;29;20031;-87
2023/09/21 09:21:31;;;;;;;9.88;3.55;;;16.70;99.90;;;;;;4954846;29;20059;-87
2023/09/21 09:23:56;;;;;;;9.15;4.78;;;16.60;99.90;;;;;;4955695;29;20137;-88
2023/09/21 09:26:22;;;;;;;12.70;4.55;;;16.70;99.90;;;;;;4956087;29;20034;-88
2023/09/21 09:28:48;;;;;;;8.00;4.40;;;16.70;99.90;;;;;;4955493;29;20029;-88
2023/09/21 09:31:14;;;;;;;5.35;2.72;;;16.70;99.90;;;;;;4931859;29;20032;-89
2023/09/21 09:33:40;;;;;;;4.38;1.38;;;16.70;99.90;;;;;;4949076;28;20043;-88
2023/09/21 09:36:06;;;;;;;4.03;1.00;;;16.60;99.90;;;;;;4933783;29;20035;-88
2023/09/21 09:38:35;;;;;;;3.15;1.17;;;16.50;99.90;;;;;;4929121;29;20031;-88
2023/09/21 09:41:05;;;;;;;4.60;1.33;;;16.40;99.90;;;;;;4946614;28;20652;-88
2023/09/21 09:43:34;;;;;;;1.92;0.82;;;16.50;99.90;;;;;;4942617;29;20039;-88
2023/09/21 09:46:04;;;;;;;4.32;1.05;;;16.40;99.90;;;;;;4943637;28;20031;-86
2023/09/21 09:48:32;;;;;;;2.42;0.70;;;16.40;99.90;;;;;;4953050;29;20038;-88
2023/09/21 09:51:05;;;;;;;2.78;0.80;;;16.50;99.90;;;;;;4954684;28;20031;-88
2023/09/21 09:53:34;;;;;;;1.83;1.02;;;16.50;99.90;;;;;;4952877;29;20483;-88
2023/09/21 09:56:08;;;;;;;2.88;0.50;;;16.60;99.90;;;;;;4954035;29;20122;-89
2023/09/21 09:58:40;;;;;;;1.98;0.70;;;16.60;99.90;;;;;;4938713;28;20042;-89
2023/09/21 10:01:08;;;;;;;1.33;0.50;;;16.60;99.90;;;;;;4947822;29;20043;-90
2023/09/21 10:03:38;;;;;;;2.40;0.50;;;16.70;99.90;;;;;;4953549;29;20436;-89
2023/09/21 10:06:09;;;;;;;1.95;0.43;;;16.70;99.90;;;;;;4953459;29;20033;-89
2023/09/21 10:08:38;;;;;;;2.20;0.47;;;16.80;99.90;;;;;;4955692;29;20043;-89
2023/09/21 10:11:06;;;;;;;1.10;0.40;;;16.80;99.90;;;;;;4950927;28;20116;-90
2023/09/21 10:13:35;;;;;;;1.45;0.30;;;16.80;99.90;;;;;;4949801;29;20058;-89
2023/09/21 10:16:05;;;;;;;1.70;0.40;;;16.70;99.90;;;;;;4938265;29;20495;-90
2023/09/21 10:18:35;;;;;;;0.98;0.30;;;16.80;99.90;;;;;;4936943;29;20047;-89
2023/09/21 10:21:26;;;;;;;1.77;0.30;;;16.70;99.90;;;;;;4958530;28;20031;-90
2023/09/21 10:24:06;;;;;;;1.38;0.35;;;16.70;99.90;;;;;;4955805;29;20033;-90
2023/09/21 10:26:33;;;;;;;2.20;0.45;;;16.80;99.90;;;;;;4935917;29;20110;-89
2023/09/21 10:29:03;;;;;;;1.27;0.20;;;16.80;99.90;;;;;;4943166;28;20027;-90
2023/09/21 10:31:31;;;;;;;1.27;0.20;;;16.90;99.90;;;;;;4935212;29;20032;-90
2023/09/21 10:33:57;;;;;;;1.73;0.20;;;17.00;99.90;;;;;;4935412;28;20046;-89
2023/09/21 10:36:23;;;;;;;0.60;0.20;;;17.10;99.90;;;;;;4935824;29;20040;-88
2023/09/21 10:39:10;;;;;;;0.63;0.20;;;17.10;99.90;;;;;;4949773;29;20103;-88
2023/09/21 10:41:39;;;;;;;1.25;0.30;;;17.10;99.90;;;;;;4946678;29;20023;-89
2023/09/21 10:44:06;;;;;;;0.82;0.30;;;17.00;99.90;;;;;;4936638;29;20044;-88
2023/09/21 10:46:37;;;;;;;1.10;0.40;;;17.00;99.90;;;;;;4951593;28;20032;-89
2023/09/21 10:49:12;;;;;;;1.23;0.40;;;17.10;99.90;;;;;;4937952;29;20090;-89
2023/09/21 10:51:39;;;;;;;1.45;0.30;;;17.10;99.90;;;;;;4936773;29;20038;-89
2023/09/21 10:54:06;;;;;;;2.40;0.40;;;17.00;99.90;;;;;;4954182;29;20030;-89
2023/09/21 10:56:36;;;;;;;2.00;0.30;;;17.00;99.90;;;;;;4954112;29;20454;-89
2023/09/21 10:59:02;;;;;;;1.48;0.40;;;17.00;99.90;;;;;;4954832;29;20030;-89
2023/09/21 11:01:28;;;;;;;2.50;0.50;;;17.10;99.90;;;;;;4953107;29;20027;-88
2023/09/21 11:03:53;;;;;;;0.90;0.30;;;17.20;99.90;;;;;;4936106;29;20035;-89
2023/09/21 11:06:20;;;;;;;1.35;0.50;;;17.10;99.90;;;;;;4952593;29;20025;-88
2023/09/21 11:08:47;;;;;;;1.13;0.28;;;17.20;99.90;;;;;;4936735;28;20114;-88
2023/09/21 11:11:13;;;;;;;1.33;0.50;;;17.30;99.90;;;;;;4958769;28;20074;-89
2023/09/21 11:13:39;;;;;;;2.28;0.60;;;17.30;99.90;;;;;;4959030;29;20039;-89
2023/09/21 11:16:06;;;;;;;1.23;0.50;;;17.40;99.90;;;;;;4952410;28;20077;-89
2023/09/21 11:18:32;;;;;;;1.35;0.50;;;17.40;99.90;;;;;;4938639;29;20035;-89
2023/09/21 11:20:58;;;;;;;2.22;0.68;;;17.40;99.90;;;;;;4957478;29;20026;-89
2023/09/21 11:23:24;;;;;;;2.47;0.60;;;17.40;99.90;;;;;;4942326;29;20039;-89
2023/09/21 11:25:50;;;;;;;2.05;0.60;;;17.40;99.90;;;;;;4940745;29;20027;-89
2023/09/21 11:28:19;;;;;;;2.58;0.60;;;17.40;99.90;;;;;;4957181;29;20027;-89
2023/09/21 11:30:45;;;;;;;1.63;0.60;;;17.30;99.90;;;;;;4953281;29;20030;-89
2023/09/21 11:33:12;;;;;;;3.78;0.70;;;17.20;99.90;;;;;;4950160;29;20047;-90
2023/09/21 11:35:38;;;;;;;2.42;0.70;;;17.10;99.90;;;;;;4957300;28;20062;-90
2023/09/21 11:38:03;;;;;;;2.08;0.60;;;16.90;99.90;;;;;;4958140;29;20075;-91
2023/09/21 11:40:29;;;;;;;1.42;0.70;;;16.80;99.90;;;;;;4957060;29;20023;-89
2023/09/21 11:42:59;;;;;;;3.65;0.90;;;16.70;99.90;;;;;;4942902;29;20476;-88
2023/09/21 11:45:26;;;;;;;4.43;0.80;;;16.60;99.90;;;;;;4934784;29;20027;-88
2023/09/21 11:47:58;;;;;;;2.40;0.88;;;16.70;99.90;;;;;;4956951;29;20055;-89
2023/09/21 11:50:26;;;;;;;2.35;0.70;;;16.70;99.90;;;;;;4957060;28;20027;-89
2023/09/21 11:52:56;;;;;;;2.75;0.75;;;16.70;99.90;;;;;;4956899;29;20031;-90
2023/09/21 11:55:27;;;;;;;1.52;0.60;;;16.60;99.90;;;;;;4956614;29;20118;-89
2023/09/21 11:58:08;;;;;;;1.27;0.50;;;16.60;99.90;;;;;;4941213;29;20567;-89
2023/09/21 12:00:45;;;;;;;1.10;0.50;;;16.50;99.90;;;;;;4934124;29;20413;-88
2023/09/21 12:03:15;;;;;;;2.88;0.65;;;16.40;99.90;;;;;;4946701;29;20054;-90
2023/09/21 12:05:45;;;;;;;3.75;0.68;;;16.40;99.90;;;;;;4956430;29;20064;-89
2023/09/21 12:08:14;;;;;;;1.67;0.50;;;16.30;99.90;;;;;;4958209;29;20045;-90
2023/09/21 12:10:41;;;;;;;3.03;0.57;;;16.20;99.90;;;;;;4954466;29;20038;-89
2023/09/21 12:13:11;;;;;;;1.90;0.63;;;16.10;99.90;;;;;;4956848;29;20031;-88
2023/09/21 12:15:37;;;;;;;1.23;0.60;;;16.00;99.90;;;;;;4940421;29;20042;-89
2023/09/21 12:18:04;;;;;;;2.88;0.80;;;16.00;99.90;;;;;;4957354;29;20519;-90
2023/09/21 12:20:30;;;;;;;2.53;0.88;;;15.90;99.90;;;;;;4939859;29;20494;-90
2023/09/21 12:22:56;;;;;;;1.92;0.52;;;16.00;99.90;;;;;;4940524;29;20217;-90
2023/09/21 12:25:24;;;;;;;1.63;0.63;;;15.90;99.90;;;;;;4956970;28;20388;-88
2023/09/21 12:27:50;;;;;;;1.73;0.60;;;16.00;99.90;;;;;;4940891;29;20037;-88
2023/09/21 12:30:17;;;;;;;2.00;0.77;;;16.00;99.90;;;;;;4955761;28;20027;-90
2023/09/21 12:32:43;;;;;;;1.38;0.60;;;16.00;99.90;;;;;;4940585;29;20136;-90
2023/09/21 12:35:09;;;;;;;1.40;0.40;;;16.00;99.90;;;;;;4933043;29;20031;-90
2023/09/21 12:37:36;;;;;;;1.38;0.40;;;16.00;99.90;;;;;;4939696;29;20038;-91
2023/09/21 12:40:11;;;;;;;1.00;0.30;;;16.00;99.90;;;;;;4940504;29;20066;-91
2023/09/21 12:42:38;;;;;;;2.03;0.60;;;16.10;99.90;;;;;;4942570;29;20066;-90
2023/09/21 12:45:05;;;;;;;1.45;0.60;;;16.10;99.90;;;;;;4955886;29;20023;-90
2023/09/21 12:47:33;;;;;;;1.48;0.40;;;16.10;99.90;;;;;;4954164;28;20027;-95
2023/09/21 12:50:06;;;;;;;1.27;0.45;;;16.10;99.90;;;;;;4946834;29;20028;-96